createdAt,value
2017-07-17T00:00:39.801Z,18.42
2017-07-17T00:01:25.243Z,18.39
2017-07-17T00:02:25.269Z,18.42
2017-07-17T00:03:25.288Z,18.35
2017-07-17T00:04:25.317Z,18.41
2017-07-17T00:05:25.003Z,18.45
2017-07-17T00:06:25.044Z,18.44
2017-07-17T00:07:25.388Z,18.39
2017-07-17T00:08:25.100Z,18.35
2017-07-17T00:09:25.116Z,18.41
2017-07-17T00:10:25.136Z,18.45
2017-07-17T00:11:25.162Z,18.51
2017-07-17T00:12:25.190Z,18.44
2017-07-17T00:13:25.542Z,18.41
2017-07-17T00:15:25.277Z,18.47
2017-07-17T00:16:40.206Z,18.41
2017-07-17T00:17:25.327Z,18.47
2017-07-17T00:18:25.336Z,18.52
2017-07-17T00:19:25.697Z,18.51
2017-07-17T00:20:25.711Z,18.47
2017-07-17T00:21:25.415Z,18.57
2017-07-17T00:22:25.748Z,18.55
2017-07-17T00:23:25.157Z,18.52
2017-07-17T00:24:25.170Z,18.6
2017-07-17T00:25:25.523Z,18.55
2017-07-17T00:26:25.228Z,18.6
2017-07-17T00:27:40.480Z,18.51
2017-07-17T00:28:25.891Z,18.62
2017-07-17T00:29:25.917Z,18.58
2017-07-17T00:30:25.980Z,18.6
2017-07-17T00:31:25.988Z,18.58
2017-07-17T00:32:40.596Z,18.6
2017-07-17T00:33:26.041Z,18.63
2017-07-17T00:34:26.045Z,18.63
2017-07-17T00:35:40.688Z,18.65
2017-07-17T00:36:25.835Z,18.63
2017-07-17T00:37:26.122Z,18.65
2017-07-17T00:38:40.435Z,18.65
2017-07-17T00:39:26.179Z,18.63
2017-07-17T00:40:26.272Z,18.62
2017-07-17T00:41:26.237Z,18.55
2017-07-17T00:42:26.260Z,18.62
2017-07-17T00:43:26.293Z,18.65
2017-07-17T00:44:26.318Z,18.72
2017-07-17T00:45:26.307Z,18.7
2017-07-17T00:46:26.366Z,18.58
2017-07-17T00:47:26.382Z,18.7
2017-07-17T00:48:40.686Z,18.67
2017-07-17T00:49:26.111Z,18.69
2017-07-17T00:50:41.061Z,18.69
2017-07-17T00:51:41.071Z,18.67
2017-07-17T00:52:26.195Z,18.72
2017-07-17T00:53:26.535Z,18.7
2017-07-17T00:54:26.235Z,18.69
2017-07-17T00:55:26.569Z,18.7
2017-07-17T00:56:26.598Z,18.55
2017-07-17T00:57:26.633Z,18.67
2017-07-17T00:58:26.335Z,18.69
2017-07-17T00:59:26.686Z,18.66
2017-07-17T01:00:26.695Z,18.58
2017-07-17T01:01:26.416Z,18.58
2017-07-17T01:02:41.346Z,18.7
2017-07-17T01:03:41.365Z,18.62
2017-07-17T01:04:26.860Z,18.62
2017-07-17T01:05:26.818Z,18.66
2017-07-17T01:06:26.904Z,18.72
2017-07-17T01:07:26.239Z,18.65
2017-07-17T01:08:26.906Z,18.65
2017-07-17T01:09:26.917Z,18.72
2017-07-17T01:10:26.962Z,18.63
2017-07-17T01:11:26.966Z,18.62
2017-07-17T01:12:26.732Z,18.69
2017-07-17T01:13:26.710Z,18.55
2017-07-17T01:14:41.645Z,18.57
2017-07-17T01:15:27.076Z,18.62
2017-07-17T01:16:27.103Z,18.6
2017-07-17T01:17:27.123Z,18.6
2017-07-17T01:18:27.158Z,18.6
2017-07-17T01:19:27.167Z,18.58
2017-07-17T01:20:26.895Z,18.5
2017-07-17T01:21:26.587Z,18.55
2017-07-17T01:22:26.934Z,18.55
2017-07-17T01:23:26.642Z,18.48
2017-07-17T01:24:27.295Z,18.48
2017-07-17T01:25:27.312Z,18.48
2017-07-17T01:26:27.336Z,18.45
2017-07-17T01:27:27.066Z,18.5
2017-07-17T01:28:41.993Z,18.36
2017-07-17T01:29:27.112Z,18.5
2017-07-17T01:30:27.141Z,18.52
2017-07-17T01:31:27.155Z,18.51
2017-07-17T01:32:27.169Z,18.5
2017-07-17T01:33:27.519Z,18.5
2017-07-17T01:34:27.553Z,18.44
2017-07-17T01:35:41.845Z,18.37
2017-07-17T01:36:27.287Z,18.41
2017-07-17T01:37:26.987Z,18.5
2017-07-17T01:38:27.648Z,18.39
2017-07-17T01:39:27.350Z,18.36
2017-07-17T01:41:27.701Z,18.35
2017-07-17T01:42:27.432Z,18.44
2017-07-17T01:43:42.044Z,18.42
2017-07-17T01:44:27.471Z,18.5
2017-07-17T01:45:27.499Z,18.52
2017-07-17T01:46:27.525Z,18.37
2017-07-17T01:47:27.558Z,18.44
2017-07-17T01:48:27.571Z,18.36
2017-07-17T01:49:27.908Z,18.45
2017-07-17T01:51:42.573Z,18.44
2017-07-17T01:52:28.004Z,18.41
2017-07-17T01:53:27.717Z,18.44
2017-07-17T01:54:28.042Z,18.47
2017-07-17T01:55:28.069Z,18.37
2017-07-17T01:56:28.071Z,18.37
2017-07-17T01:57:28.104Z,18.42
2017-07-17T01:58:28.140Z,18.35
2017-07-17T01:59:27.840Z,18.47
2017-07-17T02:00:28.194Z,18.35
2017-07-17T02:01:42.807Z,18.27
2017-07-17T02:02:28.239Z,18.3
2017-07-17T02:03:27.937Z,18.33
2017-07-17T02:04:27.963Z,18.29
2017-07-17T02:05:28.307Z,18.44
2017-07-17T02:06:28.345Z,18.36
2017-07-17T02:07:42.946Z,18.37
2017-07-17T02:08:28.400Z,18.39
2017-07-17T02:09:28.079Z,18.37
2017-07-17T02:10:28.120Z,18.39
2017-07-17T02:11:28.133Z,18.42
2017-07-17T02:13:28.180Z,18.36
2017-07-17T02:15:28.558Z,18.44
2017-07-17T02:16:28.600Z,18.33
2017-07-17T02:17:28.293Z,18.26
2017-07-17T02:18:28.616Z,18.17
2017-07-17T02:19:28.665Z,18.2
2017-07-17T02:20:28.678Z,18.15
2017-07-17T02:21:28.377Z,18.25
2017-07-17T02:22:28.738Z,18.18
2017-07-17T02:23:43.026Z,18.18
2017-07-17T02:24:28.768Z,18.14
2017-07-17T02:25:28.811Z,18.15
2017-07-17T02:26:28.504Z,18.21
2017-07-17T02:27:28.859Z,18.2
2017-07-17T02:28:28.879Z,18.12
2017-07-17T02:29:28.899Z,18.18
2017-07-17T02:31:28.941Z,18.1
2017-07-17T02:32:28.662Z,18.1
2017-07-17T02:33:28.689Z,18.1
2017-07-17T02:34:28.711Z,18.05
2017-07-17T02:35:28.738Z,18.07
2017-07-17T02:36:29.071Z,18.05
2017-07-17T02:37:28.792Z,18.08
2017-07-17T02:38:43.712Z,18.08
2017-07-17T02:39:29.157Z,18.11
2017-07-17T02:40:43.764Z,18.07
2017-07-17T02:41:29.191Z,18.17
2017-07-17T02:42:29.216Z,18.11
2017-07-17T02:43:29.253Z,18.1
2017-07-17T02:44:28.971Z,18.08
2017-07-17T02:46:29.017Z,17.99
2017-07-17T02:47:29.336Z,17.97
2017-07-17T02:48:28.734Z,17.96
2017-07-17T02:49:44.009Z,17.95
2017-07-17T02:50:29.107Z,18.02
2017-07-17T02:51:29.129Z,18.03
2017-07-17T02:52:29.136Z,18.08
2017-07-17T02:53:29.493Z,18.03
2017-07-17T02:54:29.508Z,17.96
2017-07-17T02:55:29.604Z,18
2017-07-17T02:56:28.923Z,17.93
2017-07-17T02:57:29.280Z,17.97
2017-07-17T02:58:29.296Z,18.03
2017-07-17T02:59:29.326Z,17.96
2017-07-17T03:00:29.661Z,17.9
2017-07-17T03:01:29.691Z,17.95
2017-07-17T03:02:29.721Z,17.97
2017-07-17T03:03:29.731Z,17.84
2017-07-17T03:04:29.751Z,17.84
2017-07-17T03:06:29.832Z,17.79
2017-07-17T03:07:29.524Z,17.87
2017-07-17T03:08:29.859Z,17.89
2017-07-17T03:09:29.891Z,17.89
2017-07-17T03:10:44.507Z,17.79
2017-07-17T03:11:29.929Z,17.84
2017-07-17T03:12:29.975Z,17.79
2017-07-17T03:13:29.976Z,17.82
2017-07-17T03:14:44.303Z,17.87
2017-07-17T03:15:30.046Z,17.81
2017-07-17T03:16:30.058Z,17.84
2017-07-17T03:17:30.079Z,17.93
2017-07-17T03:18:30.092Z,17.87
2017-07-17T03:19:29.824Z,17.92
2017-07-17T03:20:30.147Z,17.93
2017-07-17T03:21:44.782Z,17.96
2017-07-17T03:22:29.576Z,17.92
2017-07-17T03:23:29.591Z,17.89
2017-07-17T03:24:30.242Z,17.87
2017-07-17T03:25:30.271Z,17.87
2017-07-17T03:26:44.950Z,17.87
2017-07-17T03:27:30.332Z,17.96
2017-07-17T03:28:30.094Z,17.89
2017-07-17T03:29:30.373Z,17.89
2017-07-17T03:30:30.392Z,17.93
2017-07-17T03:31:30.432Z,17.95
2017-07-17T03:32:30.465Z,17.96
2017-07-17T03:33:30.476Z,17.96
2017-07-17T03:34:30.492Z,17.96
2017-07-17T03:35:30.516Z,17.96
2017-07-17T03:36:45.150Z,17.97
2017-07-17T03:37:30.578Z,17.86
2017-07-17T03:38:30.295Z,17.89
2017-07-17T03:39:30.627Z,17.81
2017-07-17T03:40:30.667Z,17.86
2017-07-17T03:41:30.350Z,17.79
2017-07-17T03:42:45.283Z,17.79
2017-07-17T03:43:30.415Z,17.71
2017-07-17T03:44:30.740Z,17.71
2017-07-17T03:45:30.769Z,17.68
2017-07-17T03:46:30.481Z,17.72
2017-07-17T03:47:30.514Z,17.64
2017-07-17T03:48:30.846Z,17.51
2017-07-17T03:49:30.876Z,17.51
2017-07-17T03:50:30.575Z,17.49
2017-07-17T03:51:30.917Z,17.54
2017-07-17T03:52:30.953Z,17.4
2017-07-17T03:53:30.971Z,17.4
2017-07-17T03:54:30.982Z,17.56
2017-07-17T03:55:30.379Z,17.54
2017-07-17T03:56:45.636Z,17.51
2017-07-17T03:57:31.071Z,17.4
2017-07-17T03:58:45.691Z,17.4
2017-07-17T03:59:31.099Z,17.34
2017-07-17T04:00:30.831Z,17.37
2017-07-17T04:01:30.856Z,17.33
2017-07-17T04:02:31.196Z,17.3
2017-07-17T04:03:31.212Z,17.23
2017-07-17T04:04:30.976Z,17.28
2017-07-17T04:05:31.257Z,17.34
2017-07-17T04:06:45.892Z,17.3
2017-07-17T04:07:30.987Z,17.28
2017-07-17T04:08:31.030Z,17.33
2017-07-17T04:09:31.097Z,17.36
2017-07-17T04:10:31.386Z,17.28
2017-07-17T04:11:31.085Z,17.36
2017-07-17T04:12:31.427Z,17.43
2017-07-17T04:13:46.065Z,17.38
2017-07-17T04:14:31.155Z,17.48
2017-07-17T04:16:31.220Z,17.38
2017-07-17T04:17:31.558Z,17.28
2017-07-17T04:19:31.591Z,17.23
2017-07-17T04:20:31.635Z,17.23
2017-07-17T04:21:31.331Z,17.21
2017-07-17T04:22:31.048Z,17.12
2017-07-17T04:23:31.072Z,17.36
2017-07-17T04:25:31.443Z,17.21
2017-07-17T04:26:31.789Z,17.26
2017-07-17T04:27:31.485Z,17.26
2017-07-17T04:28:31.872Z,17.43
2017-07-17T04:29:46.446Z,17.43
2017-07-17T04:30:31.887Z,17.4
2017-07-17T04:31:31.904Z,17.4
2017-07-17T04:32:31.935Z,17.41
2017-07-17T04:33:31.956Z,17.43
2017-07-17T04:34:31.968Z,17.49
2017-07-17T04:35:32.004Z,17.55
2017-07-17T04:36:31.699Z,17.55
2017-07-17T04:37:32.056Z,17.64
2017-07-17T04:38:46.673Z,17.7
2017-07-17T04:39:32.111Z,17.71
2017-07-17T04:40:32.128Z,17.59
2017-07-17T04:41:32.155Z,17.62
2017-07-17T04:42:32.163Z,17.56
2017-07-17T04:43:31.877Z,17.59
2017-07-17T04:44:32.223Z,17.58
2017-07-17T04:45:46.855Z,17.43
2017-07-17T04:46:32.015Z,17.43
2017-07-17T04:47:32.293Z,17.44
2017-07-17T04:48:32.332Z,17.41
2017-07-17T04:49:46.949Z,17.58
2017-07-17T04:50:32.392Z,17.64
2017-07-17T04:51:32.445Z,17.77
2017-07-17T04:52:32.418Z,17.78
2017-07-17T04:53:32.127Z,17.86
2017-07-17T04:54:32.474Z,17.63
2017-07-17T04:55:32.178Z,17.59
2017-07-17T04:56:32.525Z,17.62
2017-07-17T04:57:32.539Z,17.56
2017-07-17T04:58:32.572Z,17.51
2017-07-17T04:59:32.576Z,17.51
2017-07-17T05:00:32.614Z,17.55
2017-07-17T05:02:32.348Z,17.43
2017-07-17T05:03:32.379Z,17.37
2017-07-17T05:04:32.395Z,17.26
2017-07-17T05:06:32.756Z,17.31
2017-07-17T05:07:32.145Z,17.3
2017-07-17T05:08:32.506Z,17.25
2017-07-17T05:09:32.527Z,17.25
2017-07-17T05:10:32.878Z,17.3
2017-07-17T05:11:32.889Z,17.33
2017-07-17T05:12:32.912Z,17.16
2017-07-17T05:13:32.618Z,17.22
2017-07-17T05:14:32.659Z,17.28
2017-07-17T05:15:32.989Z,17.3
2017-07-17T05:16:33.021Z,17.68
2017-07-17T05:17:47.645Z,18.84
2017-07-17T05:18:33.067Z,19.78
2017-07-17T05:19:32.779Z,20.32
2017-07-17T05:20:33.114Z,20.92
2017-07-17T05:21:33.134Z,21.32
2017-07-17T05:22:32.855Z,20.95
2017-07-17T05:23:32.860Z,20.5
2017-07-17T05:24:33.235Z,20.58
2017-07-17T05:25:32.912Z,20.69
2017-07-17T05:26:32.966Z,21.37
2017-07-17T05:27:32.984Z,21.59
2017-07-17T05:28:33.017Z,21.71
2017-07-17T05:29:33.035Z,21.92
2017-07-17T05:30:33.055Z,21.67
2017-07-17T05:31:33.411Z,21.32
2017-07-17T05:32:33.130Z,21.42
2017-07-17T05:33:48.064Z,21.28
2017-07-17T05:34:33.485Z,21.17
2017-07-17T05:35:33.533Z,21.31
2017-07-17T05:36:33.541Z,21.01
2017-07-17T05:37:33.601Z,20.66
2017-07-17T05:38:33.584Z,20.66
2017-07-17T05:39:33.314Z,20.41
2017-07-17T05:40:33.030Z,20.38
2017-07-17T05:41:33.678Z,20.57
2017-07-17T05:42:33.761Z,21.58
2017-07-17T05:43:33.430Z,22.24
2017-07-17T05:44:33.801Z,22.15
2017-07-17T05:45:33.810Z,22.22
2017-07-17T05:46:33.814Z,22.57
2017-07-17T05:47:33.529Z,23.39
2017-07-17T05:48:48.473Z,23.94
2017-07-17T05:49:33.920Z,23.78
2017-07-17T05:50:33.949Z,23.97
2017-07-17T05:51:33.959Z,23.87
2017-07-17T05:52:34.056Z,23.55
2017-07-17T05:53:33.701Z,23.13
2017-07-17T05:54:33.753Z,23.48
2017-07-17T05:56:48.722Z,24.91
2017-07-17T05:58:34.198Z,24.47
2017-07-17T05:59:34.203Z,24.78
2017-07-17T06:00:34.266Z,25.45
2017-07-17T06:01:33.968Z,26.3
2017-07-17T06:02:34.305Z,26.21
2017-07-17T06:03:34.014Z,26.3
2017-07-17T06:04:34.369Z,26.47
2017-07-17T06:05:34.407Z,27.02
2017-07-17T06:06:49.033Z,28.06
2017-07-17T06:07:34.162Z,28.29
2017-07-17T06:08:34.501Z,27.46
2017-07-17T06:09:34.545Z,26.2
2017-07-17T06:10:34.561Z,25.82
2017-07-17T06:11:34.291Z,24.77
2017-07-17T06:12:34.640Z,24.4
2017-07-17T06:13:49.269Z,24.09
2017-07-17T06:14:34.687Z,23.93
2017-07-17T06:15:34.750Z,24.49
2017-07-17T06:16:34.760Z,25.09
2017-07-17T06:18:34.817Z,26.52
2017-07-17T06:19:34.548Z,26.92
2017-07-17T06:20:49.487Z,26.69
2017-07-17T06:21:34.603Z,27
2017-07-17T06:22:34.633Z,27.18
2017-07-17T06:23:34.356Z,27.27
2017-07-17T06:24:35.038Z,27.54
2017-07-17T06:25:35.043Z,27.82
2017-07-17T06:26:35.094Z,28.31
2017-07-17T06:27:35.109Z,27.4
2017-07-17T06:28:35.155Z,27.54
2017-07-17T06:29:34.549Z,27.5
2017-07-17T06:30:49.823Z,28.39
2017-07-17T06:31:35.273Z,28.33
2017-07-17T06:32:35.338Z,28.09
2017-07-17T06:33:35.325Z,28.85
2017-07-17T06:34:35.367Z,30.08
2017-07-17T06:35:35.084Z,31.14
2017-07-17T06:36:50.223Z,31.09
2017-07-17T06:38:35.827Z,29.15
2017-07-17T06:39:35.320Z,28.36
2017-07-17T06:40:35.721Z,27.04
2017-07-17T06:42:35.672Z,26.51
2017-07-17T06:43:35.712Z,26.3
2017-07-17T06:44:35.891Z,25.76
2017-07-17T06:45:35.832Z,25.42
2017-07-17T06:46:36.069Z,25.09
2017-07-17T06:47:35.695Z,24.42
2017-07-17T06:48:36.150Z,23.51
2017-07-17T06:49:36.375Z,23.04
2017-07-17T06:50:36.200Z,22.61
2017-07-17T06:51:36.232Z,22.47
2017-07-17T06:52:50.573Z,22.35
2017-07-17T06:53:35.986Z,22.2
2017-07-17T06:55:35.762Z,23.28
2017-07-17T06:56:36.103Z,24.46
2017-07-17T06:57:36.123Z,25.24
2017-07-17T06:58:36.140Z,25.92
2017-07-17T06:59:36.197Z,26.44
2017-07-17T07:00:35.902Z,26.94
2017-07-17T07:01:35.941Z,27.62
2017-07-17T07:02:36.268Z,26.75
2017-07-17T07:03:36.328Z,25.97
2017-07-17T07:05:36.389Z,26.28
2017-07-17T07:06:51.007Z,26.4
2017-07-17T07:07:36.452Z,26.09
2017-07-17T07:08:51.077Z,25.88
2017-07-17T07:09:36.224Z,25.91
2017-07-17T07:10:36.228Z,26.47
2017-07-17T07:11:36.601Z,26.89
2017-07-17T07:12:36.300Z,26.99
2017-07-17T07:13:36.343Z,26.92
2017-07-17T07:14:36.688Z,27.03
2017-07-17T07:15:36.404Z,26.72
2017-07-17T07:16:36.759Z,26.67
2017-07-17T07:17:36.797Z,26.32
2017-07-17T07:18:36.811Z,25.6
2017-07-17T07:19:36.519Z,25.03
2017-07-17T07:20:36.887Z,24.43
2017-07-17T07:21:36.903Z,25.25
2017-07-17T07:22:36.618Z,26.02
2017-07-17T07:23:51.572Z,26.02
2017-07-17T07:24:37.023Z,26.35
2017-07-17T07:25:37.048Z,26.85
2017-07-17T07:26:37.067Z,27.87
2017-07-17T07:27:37.119Z,28.59
2017-07-17T07:28:36.814Z,29.16
2017-07-17T07:29:36.849Z,29.19
2017-07-17T07:30:37.201Z,29.36
2017-07-17T07:31:37.243Z,29.37
2017-07-17T07:32:51.869Z,29.45
2017-07-17T07:33:37.311Z,29.58
2017-07-17T07:34:37.027Z,29.9
2017-07-17T07:35:51.985Z,29.7
2017-07-17T07:37:37.452Z,29.51
2017-07-17T07:38:37.466Z,28.31
2017-07-17T07:39:37.500Z,27.41
2017-07-17T07:40:52.148Z,26.18
2017-07-17T07:41:37.575Z,26.45
2017-07-17T07:42:37.624Z,26.32
2017-07-17T07:43:37.012Z,26.32
2017-07-17T07:45:37.717Z,25.7
2017-07-17T07:46:37.734Z,25.3
2017-07-17T07:47:37.781Z,24.91
2017-07-17T07:48:37.502Z,25.17
2017-07-17T07:49:37.536Z,26.18
2017-07-17T07:50:37.545Z,27.18
2017-07-17T07:51:37.583Z,28.11
2017-07-17T07:52:37.298Z,28.83
2017-07-17T07:53:37.352Z,28.78
2017-07-17T07:54:38.008Z,28.24
2017-07-17T07:55:52.327Z,27.74
2017-07-17T07:56:38.075Z,27.63
2017-07-17T07:58:38.129Z,26.77
2017-07-17T07:59:38.225Z,26.39
2017-07-17T08:00:38.191Z,26.18
2017-07-17T08:02:37.965Z,25.36
2017-07-17T08:03:38.328Z,24.93
2017-07-17T08:04:38.359Z,24.47
2017-07-17T08:05:38.058Z,24.06
2017-07-17T08:06:38.414Z,23.87
2017-07-17T08:07:38.429Z,23.95
2017-07-17T08:08:38.509Z,24.45
2017-07-17T08:09:38.164Z,25.36
2017-07-17T08:10:38.215Z,26.21
2017-07-17T08:11:52.841Z,26.39
2017-07-17T08:13:37.978Z,26.4
2017-07-17T08:14:38.648Z,26.66
2017-07-17T08:15:38.660Z,27.51
2017-07-17T08:16:38.708Z,27.24
2017-07-17T08:17:38.751Z,27
2017-07-17T08:18:38.787Z,25.85
2017-07-17T08:19:38.816Z,25.6
2017-07-17T08:20:38.840Z,25.69
2017-07-17T08:21:38.232Z,25.8
2017-07-17T08:22:53.505Z,25.87
2017-07-17T08:23:38.943Z,25.6
2017-07-17T08:24:38.967Z,25.14
2017-07-17T08:25:39.016Z,24.99
2017-07-17T08:26:38.716Z,24.91
2017-07-17T08:27:53.669Z,25.32
2017-07-17T08:28:39.088Z,26.06
2017-07-17T08:29:39.138Z,26.58
2017-07-17T08:30:39.167Z,27.7
2017-07-17T08:31:53.798Z,27.81
2017-07-17T08:32:38.899Z,27.9
2017-07-17T08:33:39.256Z,26.92
2017-07-17T08:34:39.290Z,26.54
2017-07-17T08:35:38.997Z,26.87
2017-07-17T08:37:39.077Z,26.18
2017-07-17T08:38:39.123Z,26.5
2017-07-17T08:39:53.727Z,27.41
2017-07-17T08:40:39.464Z,28.02
2017-07-17T08:41:39.199Z,28.41
2017-07-17T08:43:54.184Z,29.73
2017-07-17T08:44:39.301Z,30.16
2017-07-17T08:45:39.329Z,29.57
2017-07-17T08:46:39.362Z,28.46
2017-07-17T08:47:39.379Z,26.92
2017-07-17T08:48:39.744Z,26.32
2017-07-17T08:49:39.462Z,25.91
2017-07-17T08:50:39.503Z,25.67
2017-07-17T08:51:39.204Z,25.46
2017-07-17T08:52:39.879Z,25.72
2017-07-17T08:53:39.599Z,26.57
2017-07-17T08:54:39.624Z,27.37
2017-07-17T08:55:39.983Z,28.04
2017-07-17T08:56:39.682Z,28.39
2017-07-17T08:57:40.029Z,28.83
2017-07-17T08:58:54.360Z,29.45
2017-07-17T08:59:40.104Z,29.57
2017-07-17T09:00:39.823Z,29.86
2017-07-17T09:01:54.758Z,30.1
2017-07-17T09:02:39.887Z,30.07
2017-07-17T09:03:40.238Z,30.62
2017-07-17T09:04:39.953Z,30.2
2017-07-17T09:06:40.013Z,27.65
2017-07-17T09:08:40.075Z,27
2017-07-17T09:09:40.125Z,27.07
2017-07-17T09:10:40.448Z,27.17
2017-07-17T09:11:40.182Z,27.94
2017-07-17T09:12:40.207Z,28.48
2017-07-17T09:13:40.570Z,28.86
2017-07-17T09:14:40.606Z,29.28
2017-07-17T09:15:40.631Z,29.31
2017-07-17T09:16:40.659Z,29.51
2017-07-17T09:17:40.371Z,29.64
2017-07-17T09:18:40.731Z,29.68
2017-07-17T09:19:40.132Z,29.52
2017-07-17T09:20:55.405Z,29.67
2017-07-17T09:21:40.514Z,29.73
2017-07-17T09:22:40.224Z,29.53
2017-07-17T09:23:40.268Z,29.57
2017-07-17T09:25:40.641Z,29.48
2017-07-17T09:27:40.698Z,29.49
2017-07-17T09:28:40.759Z,29.24
2017-07-17T09:29:40.775Z,28.7
2017-07-17T09:30:55.739Z,28.54
2017-07-17T09:32:41.196Z,29.02
2017-07-17T09:33:41.237Z,29.43
2017-07-17T09:34:41.268Z,29.53
2017-07-17T09:35:41.313Z,28.89
2017-07-17T09:36:55.619Z,28.07
2017-07-17T09:37:41.356Z,28.11
2017-07-17T09:38:41.398Z,28.49
2017-07-17T09:39:41.435Z,28.68
2017-07-17T09:40:56.066Z,28.81
2017-07-17T09:41:41.180Z,28.43
2017-07-17T09:42:41.207Z,28.27
2017-07-17T09:43:41.557Z,28.18
2017-07-17T09:44:41.581Z,28.62
2017-07-17T09:46:56.252Z,29.98
2017-07-17T09:47:41.697Z,29.98
2017-07-17T09:48:56.322Z,30.45
2017-07-17T09:50:41.160Z,30.49
2017-07-17T09:51:41.826Z,30.45
2017-07-17T09:52:41.545Z,30.49
2017-07-17T09:53:41.576Z,30
2017-07-17T09:54:41.604Z,30.01
2017-07-17T09:55:56.560Z,30.19
2017-07-17T09:56:42.001Z,30.37
2017-07-17T09:57:56.625Z,29.11
2017-07-17T09:58:41.752Z,28.81
2017-07-17T09:59:56.703Z,28.46
2017-07-17T10:00:42.114Z,27.94
2017-07-17T10:01:41.849Z,27.77
2017-07-17T10:02:56.791Z,28.4
2017-07-17T10:04:42.261Z,28.46
2017-07-17T10:05:42.293Z,28.59
2017-07-17T10:06:42.334Z,28.34
2017-07-17T10:07:42.341Z,27.69
2017-07-17T10:08:41.763Z,27.27
2017-07-17T10:09:42.418Z,27.36
2017-07-17T10:10:42.458Z,27.93
2017-07-17T10:11:41.835Z,28.48
2017-07-17T10:12:42.204Z,28.86
2017-07-17T10:13:42.579Z,29.3
2017-07-17T10:14:42.585Z,28.95
2017-07-17T10:15:57.206Z,29.08
2017-07-17T10:16:42.332Z,29.37
2017-07-17T10:17:42.345Z,29.52
2017-07-17T10:19:57.333Z,29.16
2017-07-17T10:20:42.444Z,28.56
2017-07-17T10:21:42.807Z,28.44
2017-07-17T10:24:42.592Z,28.81
2017-07-17T10:25:42.624Z,28.73
2017-07-17T10:26:42.322Z,28.78
2017-07-17T10:27:42.667Z,28.76
2017-07-17T10:28:42.716Z,28.89
2017-07-17T10:29:42.738Z,29.33
2017-07-17T10:30:42.779Z,29.49
2017-07-17T10:31:43.125Z,29.39
2017-07-17T10:32:42.848Z,27.88
2017-07-17T10:33:57.789Z,27.67
2017-07-17T10:34:43.221Z,27.77
2017-07-17T10:35:42.609Z,28.02
2017-07-17T10:36:43.294Z,28.14
2017-07-17T10:37:42.997Z,28.03
2017-07-17T10:38:43.027Z,27.41
2017-07-17T10:39:43.067Z,26.77
2017-07-17T10:40:43.094Z,26.43
2017-07-17T10:43:12.671Z,25.69
2017-07-17T10:43:43.192Z,25.79
2017-07-17T10:44:42.888Z,26.05
2017-07-17T10:45:43.569Z,26.39
2017-07-17T10:46:42.964Z,26.45
2017-07-17T10:47:43.622Z,26.01
2017-07-17T10:48:43.643Z,26.02
2017-07-17T10:49:43.052Z,26.02
2017-07-17T10:50:43.385Z,26.13
2017-07-17T10:51:43.439Z,26.02
2017-07-17T10:52:43.443Z,26.36
2017-07-17T10:53:43.501Z,26.5
2017-07-17T10:54:43.844Z,26.4
2017-07-17T10:55:43.557Z,26.18
2017-07-17T10:56:43.905Z,26.36
2017-07-17T10:57:43.922Z,26.51
2017-07-17T10:58:43.660Z,26.72
2017-07-17T10:59:43.673Z,26.81
2017-07-17T11:01:43.420Z,26.67
2017-07-17T11:02:43.771Z,26.65
2017-07-17T11:05:58.469Z,25.69
2017-07-17T11:06:44.203Z,25.82
2017-07-17T11:07:43.932Z,25.85
2017-07-17T11:08:44.268Z,25.98
2017-07-17T11:09:43.987Z,25.92
2017-07-17T11:10:44.326Z,25.85
2017-07-17T11:11:58.649Z,25.69
2017-07-17T11:12:44.060Z,25.73
2017-07-17T11:13:44.409Z,25.43
2017-07-17T11:14:44.441Z,25.39
2017-07-17T11:15:43.854Z,25.2
2017-07-17T11:16:44.182Z,25.17
2017-07-17T11:17:44.230Z,25.2
2017-07-17T11:18:44.568Z,25.2
2017-07-17T11:19:44.288Z,25.2
2017-07-17T11:20:44.306Z,25.08
2017-07-17T11:22:44.371Z,24.73
2017-07-17T11:23:44.403Z,24.87
2017-07-17T11:24:59.358Z,25.17
2017-07-17T11:25:59.065Z,25.36
2017-07-17T11:26:44.494Z,25.55
2017-07-17T11:27:44.511Z,26.01
2017-07-17T11:28:44.866Z,26.05
2017-07-17T11:29:44.901Z,26.09
2017-07-17T11:30:44.332Z,26.21
2017-07-17T11:31:44.972Z,26.35
2017-07-17T11:33:44.383Z,26.4
2017-07-17T11:34:45.043Z,26.15
2017-07-17T11:35:44.742Z,25.92
2017-07-17T11:36:45.116Z,25.77
2017-07-17T11:37:59.722Z,25.42
2017-07-17T11:38:44.527Z,25.02
2017-07-17T11:39:45.184Z,24.98
2017-07-17T11:40:45.211Z,24.8
2017-07-17T11:41:45.251Z,24.98
2017-07-17T11:43:45.311Z,24.77
2017-07-17T11:44:45.015Z,25.06
2017-07-17T11:45:45.365Z,25.17
2017-07-17T11:56:12.817Z,26.57
2017-07-17T11:57:12.830Z,26.69
2017-07-17T11:59:12.572Z,26.92
2017-07-17T12:00:12.953Z,27.03
2017-07-17T12:01:12.954Z,26.65
2017-07-17T12:02:12.993Z,26.28
2017-07-17T12:03:13.020Z,25.79
2017-07-17T12:04:27.638Z,25.28
2017-07-17T12:06:13.099Z,25.14
2017-07-17T12:07:13.131Z,25.24
2017-07-17T12:08:12.833Z,25.2
2017-07-17T12:10:13.219Z,25.28
2017-07-17T12:11:13.253Z,25.27
2017-07-17T12:12:27.864Z,25.33
2017-07-17T12:13:13.313Z,25.42
2017-07-17T12:14:13.334Z,25.3
2017-07-17T12:15:13.039Z,24.93
2017-07-17T12:16:12.751Z,24.71
2017-07-17T12:17:13.426Z,24.93
2017-07-17T12:18:27.733Z,25.03
2017-07-17T12:19:13.154Z,24.71
2017-07-17T12:20:13.514Z,24.81
2017-07-17T12:21:13.532Z,24.64
2017-07-17T12:22:13.567Z,24.62
2017-07-17T12:23:13.265Z,25.02
2017-07-17T12:24:13.634Z,25.17
2017-07-17T12:25:13.641Z,25.45
2017-07-17T12:26:13.693Z,25.6
2017-07-17T12:27:13.689Z,25.69
2017-07-17T12:28:28.335Z,25.65
2017-07-17T12:30:13.799Z,25.36
2017-07-17T12:31:13.823Z,25.18
2017-07-17T12:32:13.881Z,24.91
2017-07-17T12:33:13.568Z,25.21
2017-07-17T12:34:13.642Z,25.3
2017-07-17T12:35:13.613Z,25.38
2017-07-17T12:36:13.979Z,25.17
2017-07-17T12:37:28.592Z,24.96
2017-07-17T12:38:14.040Z,25.14
2017-07-17T12:39:14.050Z,25.18
2017-07-17T12:40:14.088Z,25.17
2017-07-17T12:41:14.117Z,25.03
2017-07-17T12:42:14.160Z,24.67
2017-07-17T12:45:14.217Z,25.1
2017-07-17T12:46:28.846Z,25.23
2017-07-17T12:47:14.289Z,25.3
2017-07-17T12:48:14.316Z,25.21
2017-07-17T12:49:14.350Z,25.21
2017-07-17T12:50:14.373Z,25.15
2017-07-17T12:51:14.391Z,25.25
2017-07-17T12:52:14.098Z,25.47
2017-07-17T12:53:14.142Z,25.06
2017-07-17T12:54:14.482Z,25.08
2017-07-17T12:55:14.196Z,25.08
2017-07-17T12:56:29.134Z,25.09
2017-07-17T12:57:14.580Z,25.15
2017-07-17T12:58:14.589Z,25
2017-07-17T12:59:14.603Z,24.65
2017-07-17T13:00:29.253Z,24.6
2017-07-17T13:01:14.400Z,24.67
2017-07-17T13:02:14.397Z,24.68
2017-07-17T13:03:14.418Z,24.62
2017-07-17T13:04:14.776Z,24.58
2017-07-17T13:05:14.781Z,24.42
2017-07-17T13:06:14.836Z,24.45
2017-07-17T13:07:14.524Z,24.42
2017-07-17T13:08:14.560Z,24.12
2017-07-17T13:09:14.906Z,24.12
2017-07-17T13:10:14.945Z,24.05
2017-07-17T13:11:14.963Z,24.05
2017-07-17T13:12:14.997Z,23.97
2017-07-17T13:13:14.698Z,23.76
2017-07-17T13:14:15.062Z,23.8
2017-07-17T13:15:29.678Z,23.83
2017-07-17T13:16:15.120Z,23.98
2017-07-17T13:17:14.833Z,24.1
2017-07-17T13:18:14.853Z,24.3
2017-07-17T13:19:15.187Z,24.39
2017-07-17T13:20:15.227Z,24.43
2017-07-17T13:21:14.919Z,24.35
2017-07-17T13:23:15.308Z,24.6
2017-07-17T13:24:15.329Z,24.61
2017-07-17T13:25:15.367Z,24.73
2017-07-17T13:26:30.035Z,25.06
2017-07-17T13:27:15.440Z,25.2
2017-07-17T13:28:15.111Z,25.08
2017-07-17T13:29:15.153Z,25.28
2017-07-17T13:30:15.497Z,25.38
2017-07-17T13:31:15.557Z,25.38
2017-07-17T13:32:15.535Z,25.42
2017-07-17T13:33:15.265Z,25.5
2017-07-17T13:34:15.669Z,25.6
2017-07-17T13:35:15.315Z,25.62
2017-07-17T13:36:15.352Z,25.58
2017-07-17T13:37:15.067Z,25.54
2017-07-17T13:38:15.406Z,25.05
2017-07-17T13:39:15.440Z,24.57
2017-07-17T13:40:15.771Z,24.55
2017-07-17T13:41:15.814Z,24.68
2017-07-17T13:42:15.522Z,24.55
2017-07-17T13:43:30.461Z,24.95
2017-07-17T13:44:15.894Z,24.81
2017-07-17T13:45:15.925Z,24.68
2017-07-17T13:46:15.957Z,24.68
2017-07-17T13:47:30.570Z,24.85
2017-07-17T13:48:15.688Z,24.91
2017-07-17T13:49:16.022Z,24.88
2017-07-17T13:50:16.067Z,24.8
2017-07-17T13:51:16.077Z,24.91
2017-07-17T13:52:16.129Z,25.06
2017-07-17T13:53:16.137Z,25.23
2017-07-17T13:54:16.175Z,25.17
2017-07-17T13:55:30.797Z,25.27
2017-07-17T13:56:16.238Z,25.36
2017-07-17T13:57:16.266Z,25.5
2017-07-17T13:58:15.967Z,25.6